Time;durP1;ratioP1;P1;durP2;ratioP2;P2;SDS_P1;SDS_P2;PMS_P1;PMS_P2;Temp;Humidity;BMP_temperature;BMP_pressure;BME280_temperature;BME280_humidity;BME280_pressure;Samples;Min_cycle;Max_cycle;Signal;HPM_P1;HPM_P2
2022/10/20 00:01:41;;;;;;;4.28;2.55;;;11.10;99.90;;;;;;5056342;28;20714;-81
2022/10/20 00:04:08;;;;;;;3.13;2.83;;;11.10;99.90;;;;;;5056738;28;20295;-80
2022/10/20 00:06:35;;;;;;;2.90;2.70;;;11.20;99.90;;;;;;5056952;28;20680;-81
2022/10/20 00:09:04;;;;;;;3.40;2.80;;;11.20;99.90;;;;;;5056412;28;20239;-81
2022/10/20 00:11:31;;;;;;;3.08;2.53;;;11.20;99.90;;;;;;5055954;28;20303;-82
2022/10/20 00:14:01;;;;;;;5.93;2.92;;;11.20;99.90;;;;;;5055365;28;20216;-81
2022/10/20 00:16:30;;;;;;;4.18;2.83;;;11.20;99.90;;;;;;5056291;28;20716;-81
2022/10/20 00:18:59;;;;;;;7.50;2.60;;;11.20;99.90;;;;;;5050934;28;20312;-80
2022/10/20 00:21:27;;;;;;;3.20;2.92;;;11.20;99.90;;;;;;5056438;28;20628;-80
2022/10/20 00:23:55;;;;;;;2.70;2.40;;;11.10;99.90;;;;;;5055671;28;20678;-81
2022/10/20 00:26:23;;;;;;;3.40;2.75;;;11.10;99.90;;;;;;5052438;28;20240;-81
2022/10/20 00:28:51;;;;;;;3.72;3.03;;;11.00;99.90;;;;;;5050148;28;20304;-81
2022/10/20 00:31:21;;;;;;;3.22;2.50;;;11.00;99.90;;;;;;5056083;28;20303;-80
2022/10/20 00:33:48;;;;;;;2.50;2.30;;;11.00;99.90;;;;;;5055249;28;20242;-80
2022/10/20 00:36:18;;;;;;;2.38;2.17;;;11.00;99.90;;;;;;5055712;28;20722;-80
2022/10/20 00:38:45;;;;;;;2.80;2.60;;;11.00;99.90;;;;;;5055583;28;20267;-81
2022/10/20 00:41:13;;;;;;;3.60;2.85;;;10.90;99.90;;;;;;5055476;28;20248;-81
2022/10/20 00:43:46;;;;;;;3.30;3.00;;;10.90;99.90;;;;;;5055396;28;20286;-81
2022/10/20 00:46:17;;;;;;;3.30;3.10;;;11.00;99.90;;;;;;5055126;28;20281;-80
2022/10/20 00:48:48;;;;;;;4.80;2.90;;;10.90;99.90;;;;;;5055708;28;20274;-81
2022/10/20 00:51:18;;;;;;;4.85;3.55;;;10.90;99.90;;;;;;5055045;28;20236;-80
2022/10/20 00:53:46;;;;;;;3.53;3.22;;;10.90;99.90;;;;;;5055071;28;20748;-80
2022/10/20 00:56:14;;;;;;;4.22;2.85;;;10.80;99.90;;;;;;5054861;28;20295;-80
2022/10/20 00:58:42;;;;;;;6.57;2.70;;;10.70;99.90;;;;;;5055411;28;20251;-81
2022/10/20 01:01:10;;;;;;;3.28;2.97;;;10.60;99.90;;;;;;5054852;28;20224;-80
2022/10/20 01:03:44;;;;;;;4.05;2.90;;;10.60;99.90;;;;;;5055706;28;20641;-81
2022/10/20 01:06:13;;;;;;;4.65;2.65;;;10.60;99.90;;;;;;5054944;28;20239;-81
2022/10/20 01:08:41;;;;;;;4.35;2.80;;;10.60;99.90;;;;;;5055810;28;20303;-81
2022/10/20 01:11:18;;;;;;;2.60;2.40;;;10.60;99.90;;;;;;5046364;28;20235;-81
2022/10/20 01:13:57;;;;;;;3.20;2.33;;;10.60;99.90;;;;;;5050865;28;20239;-81
2022/10/20 01:16:31;;;;;;;3.53;2.83;;;10.50;99.90;;;;;;5055415;28;20217;-81
2022/10/20 01:22:12;;;;;;;4.93;2.80;;;10.50;99.90;;;;;;5017470;28;20225;-81
2022/10/20 01:24:54;;;;;;;2.83;2.58;;;10.50;99.90;;;;;;5055640;28;20228;-80
2022/10/20 01:27:31;;;;;;;5.15;2.75;;;10.50;99.90;;;;;;5055772;28;20212;-80
2022/10/20 01:30:10;;;;;;;4.45;3.30;;;10.60;99.90;;;;;;5055776;28;20228;-82
2022/10/20 01:32:58;;;;;;;3.30;2.97;;;10.50;99.90;;;;;;5055395;28;20223;-80
2022/10/20 01:35:38;;;;;;;3.90;3.40;;;10.60;99.90;;;;;;5054157;28;20335;-81
2022/10/20 01:38:14;;;;;;;5.63;3.05;;;10.60;99.90;;;;;;5055340;28;20254;-81
2022/10/20 01:40:47;;;;;;;3.92;2.60;;;10.50;99.90;;;;;;5054148;28;20258;-81
2022/10/20 01:43:20;;;;;;;3.50;3.10;;;10.50;99.90;;;;;;5054696;28;20220;-81
2022/10/20 01:45:49;;;;;;;4.15;2.95;;;10.40;99.90;;;;;;5054284;28;20278;-81
2022/10/20 01:48:20;;;;;;;3.22;2.65;;;10.40;99.90;;;;;;5055577;28;20242;-81
2022/10/20 01:50:48;;;;;;;3.40;2.95;;;10.40;99.90;;;;;;5054820;28;20224;-81
2022/10/20 01:53:16;;;;;;;5.57;2.90;;;10.40;99.90;;;;;;5054405;28;20238;-82
2022/10/20 01:55:43;;;;;;;2.60;2.40;;;10.40;99.90;;;;;;5054208;28;20243;-81
2022/10/20 01:58:31;;;;;;;3.53;2.85;;;10.40;99.90;;;;;;5056298;28;20217;-82
2022/10/20 02:01:08;;;;;;;3.97;2.80;;;10.30;99.90;;;;;;5046336;28;20308;-82
2022/10/20 02:03:45;;;;;;;4.32;3.33;;;10.40;99.90;;;;;;5043275;28;20342;-82
2022/10/20 02:06:24;;;;;;;3.22;2.92;;;10.40;99.90;;;;;;5055201;28;20234;-81
2022/10/20 02:08:55;;;;;;;3.85;3.08;;;10.40;99.90;;;;;;5054476;28;20248;-82
2022/10/20 02:11:27;;;;;;;8.70;3.45;;;10.30;99.90;;;;;;5054298;28;20302;-81
2022/10/20 02:13:57;;;;;;;3.20;2.60;;;10.30;99.90;;;;;;5054133;28;20228;-82
2022/10/20 02:16:29;;;;;;;3.58;2.80;;;10.40;99.90;;;;;;5054973;28;20241;-81
2022/10/20 02:18:57;;;;;;;4.28;3.05;;;10.30;99.90;;;;;;5046340;28;20233;-79
2022/10/20 02:21:24;;;;;;;5.68;4.28;;;10.30;99.90;;;;;;5054093;28;20217;-82
2022/10/20 02:23:53;;;;;;;3.00;2.78;;;10.30;99.90;;;;;;5053179;28;20228;-81
2022/10/20 02:26:22;;;;;;;3.65;2.95;;;10.40;99.90;;;;;;5054061;28;20217;-82
2022/10/20 02:28:54;;;;;;;3.47;2.80;;;10.30;99.90;;;;;;5043031;28;20284;-81
2022/10/20 02:31:27;;;;;;;4.18;3.22;;;10.30;99.90;;;;;;5049848;28;20247;-83
2022/10/20 02:33:57;;;;;;;3.75;3.40;;;10.30;99.90;;;;;;5053669;28;20746;-82
2022/10/20 02:36:27;;;;;;;6.63;3.35;;;10.30;99.90;;;;;;5053867;28;20286;-81
2022/10/20 02:38:54;;;;;;;4.28;2.67;;;10.30;99.90;;;;;;5053680;28;20243;-82
2022/10/20 02:41:28;;;;;;;3.85;3.30;;;10.30;99.90;;;;;;5053417;28;20216;-83
2022/10/20 02:46:38;;;;;;;5.70;2.85;;;10.20;99.90;;;;;;5038007;28;20227;-83
2022/10/20 02:49:05;;;;;;;5.07;2.35;;;10.20;99.90;;;;;;5053451;28;20231;-82
2022/10/20 02:51:32;;;;;;;2.40;2.20;;;10.20;99.90;;;;;;5052684;28;20220;-84
2022/10/20 02:54:04;;;;;;;4.43;2.67;;;10.20;99.90;;;;;;5053467;28;20220;-82
2022/10/20 02:56:31;;;;;;;4.80;3.10;;;10.20;99.90;;;;;;5053149;28;20730;-82
2022/10/20 02:58:58;;;;;;;2.80;2.45;;;10.30;99.90;;;;;;5052217;28;20300;-82
2022/10/20 03:01:28;;;;;;;3.13;2.78;;;10.20;99.90;;;;;;5053086;28;20278;-82
2022/10/20 03:03:58;;;;;;;2.85;2.28;;;10.20;99.90;;;;;;5053243;28;20406;-81
2022/10/20 03:06:26;;;;;;;4.57;2.67;;;10.30;99.90;;;;;;5052657;28;20248;-81
2022/10/20 03:08:53;;;;;;;4.20;2.70;;;10.30;99.90;;;;;;5053385;28;20742;-82
2022/10/20 03:11:28;;;;;;;3.67;2.72;;;10.30;99.90;;;;;;5053224;28;20304;-81
2022/10/20 03:13:55;;;;;;;3.65;3.28;;;10.40;99.90;;;;;;5052731;28;20278;-82
2022/10/20 03:16:23;;;;;;;3.67;2.70;;;10.40;99.90;;;;;;5053059;28;20221;-83
2022/10/20 03:18:50;;;;;;;5.35;3.92;;;10.40;99.90;;;;;;5053147;28;20312;-83
2022/10/20 03:21:18;;;;;;;4.63;2.78;;;10.40;99.90;;;;;;5052832;28;20250;-83
2022/10/20 03:23:45;;;;;;;2.83;2.53;;;10.40;99.90;;;;;;5055938;28;20336;-83
2022/10/20 03:26:13;;;;;;;4.15;2.70;;;10.40;99.90;;;;;;5051968;28;20224;-82
2022/10/20 03:28:40;;;;;;;8.85;2.85;;;10.40;99.90;;;;;;5042552;28;20286;-83
2022/10/20 03:31:08;;;;;;;3.95;3.55;;;10.40;99.90;;;;;;5059759;28;20229;-82
2022/10/20 03:33:35;;;;;;;3.38;2.88;;;10.40;99.90;;;;;;5056935;28;20717;-82
2022/10/20 03:36:02;;;;;;;2.60;1.90;;;10.40;99.90;;;;;;5046859;28;20249;-83
2022/10/20 03:38:30;;;;;;;3.78;3.47;;;10.40;99.90;;;;;;5047066;28;20299;-82
2022/10/20 03:40:58;;;;;;;3.95;3.53;;;10.30;99.90;;;;;;5053074;28;20344;-82
2022/10/20 03:43:25;;;;;;;4.82;3.58;;;10.40;99.90;;;;;;5060519;28;20630;-82
2022/10/20 03:46:00;;;;;;;3.63;2.78;;;10.30;99.90;;;;;;5051287;28;20299;-82
2022/10/20 03:48:27;;;;;;;3.25;2.95;;;10.40;99.90;;;;;;5052025;28;20220;-82
2022/10/20 03:50:54;;;;;;;3.97;3.10;;;10.30;99.90;;;;;;5053278;28;20262;-82
2022/10/20 03:53:21;;;;;;;3.58;3.28;;;10.30;99.90;;;;;;5052449;28;20224;-82
2022/10/20 03:55:49;;;;;;;3.67;3.00;;;10.30;99.90;;;;;;5053301;28;20232;-82
2022/10/20 03:58:16;;;;;;;4.95;2.90;;;10.30;99.90;;;;;;5053988;28;20307;-81
2022/10/20 04:03:37;;;;;;;4.15;3.75;;;10.20;99.90;;;;;;5011031;28;20228;-82
2022/10/20 04:06:04;;;;;;;8.40;2.83;;;10.20;99.90;;;;;;5060902;28;20221;-81
2022/10/20 04:08:31;;;;;;;5.07;4.15;;;10.20;99.90;;;;;;5044523;28;20217;-81
2022/10/20 04:10:59;;;;;;;3.72;3.03;;;10.10;99.90;;;;;;5049851;28;20282;-80
2022/10/20 04:13:26;;;;;;;3.50;3.20;;;10.10;99.90;;;;;;5048453;28;20212;-81
2022/10/20 04:15:53;;;;;;;3.55;3.25;;;10.10;99.90;;;;;;5050701;28;20236;-80
2022/10/20 04:18:26;;;;;;;5.70;4.13;;;9.90;99.90;;;;;;5052422;28;20216;-80
2022/10/20 04:20:53;;;;;;;4.28;3.60;;;9.90;99.90;;;;;;5050387;28;20655;-80
2022/10/20 04:23:20;;;;;;;5.15;3.92;;;9.80;99.90;;;;;;5053174;28;20597;-80
2022/10/20 04:25:48;;;;;;;4.45;3.70;;;9.80;99.90;;;;;;5051182;28;20258;-80
2022/10/20 04:28:17;;;;;;;6.05;3.70;;;9.80;99.90;;;;;;5054840;28;20220;-80
2022/10/20 04:30:45;;;;;;;4.03;2.92;;;9.80;99.90;;;;;;5054249;28;20225;-81
2022/10/20 04:33:13;;;;;;;4.15;3.75;;;9.80;99.90;;;;;;5056067;28;20298;-80
2022/10/20 04:35:40;;;;;;;4.97;3.60;;;9.70;99.90;;;;;;5055742;28;20229;-81
2022/10/20 04:38:07;;;;;;;4.03;3.63;;;9.70;99.90;;;;;;5056464;28;20216;-80
2022/10/20 04:40:34;;;;;;;11.27;3.90;;;9.60;99.90;;;;;;5053436;28;20309;-80
2022/10/20 04:43:01;;;;;;;4.72;4.18;;;9.60;99.90;;;;;;5055265;28;20228;-81
2022/10/20 04:45:29;;;;;;;5.50;3.53;;;9.50;99.90;;;;;;5055512;28;20603;-81
2022/10/20 04:47:56;;;;;;;4.45;3.50;;;9.50;99.90;;;;;;5055007;28;20249;-81
2022/10/20 04:50:23;;;;;;;7.18;3.55;;;9.50;99.90;;;;;;5056503;28;20234;-80
2022/10/20 04:52:50;;;;;;;4.07;3.75;;;9.50;99.90;;;;;;5054393;28;20720;-78
2022/10/20 04:55:17;;;;;;;5.35;4.00;;;9.40;99.90;;;;;;5066110;28;20213;-77
2022/10/20 04:57:44;;;;;;;4.38;3.65;;;9.50;99.90;;;;;;5061049;28;20228;-78
2022/10/20 05:00:12;;;;;;;4.88;4.40;;;9.50;99.90;;;;;;5068711;28;20289;-81
2022/10/20 05:02:41;;;;;;;9.05;4.53;;;9.50;99.90;;;;;;5057761;28;20259;-77
2022/10/20 05:05:08;;;;;;;5.55;4.53;;;9.50;99.90;;;;;;5056004;28;20248;-78
2022/10/20 05:07:35;;;;;;;4.75;3.72;;;9.50;99.90;;;;;;5055353;28;20564;-78
2022/10/20 05:10:03;;;;;;;5.78;4.50;;;9.50;99.90;;;;;;5057520;28;20212;-76
2022/10/20 05:12:29;;;;;;;8.00;4.55;;;9.50;99.90;;;;;;5057298;28;20682;-75
2022/10/20 05:14:59;;;;;;;5.72;3.90;;;9.60;99.90;;;;;;5063294;28;20236;-80
2022/10/20 05:17:26;;;;;;;6.80;4.15;;;9.60;99.90;;;;;;5055736;28;20229;-80
2022/10/20 05:19:54;;;;;;;8.75;5.10;;;9.60;99.90;;;;;;5056102;28;20225;-79
2022/10/20 05:22:21;;;;;;;6.38;4.13;;;9.70;99.90;;;;;;5059156;28;20229;-80
2022/10/20 05:24:48;;;;;;;6.80;4.68;;;9.70;99.90;;;;;;5072131;28;20255;-81
2022/10/20 05:27:15;;;;;;;5.78;3.95;;;9.60;99.90;;;;;;5061749;28;20228;-80
2022/10/20 05:29:42;;;;;;;4.53;4.13;;;9.60;99.90;;;;;;5055369;28;20351;-80
2022/10/20 05:32:11;;;;;;;7.47;4.63;;;9.60;99.90;;;;;;5054300;28;20307;-80
2022/10/20 05:34:42;;;;;;;10.48;4.57;;;9.60;99.90;;;;;;5055157;28;20226;-80
2022/10/20 05:37:10;;;;;;;6.40;4.68;;;9.40;99.90;;;;;;5053503;28;20686;-80
2022/10/20 05:39:38;;;;;;;5.20;4.70;;;9.50;99.90;;;;;;5055364;28;20229;-80
2022/10/20 05:42:05;;;;;;;5.90;4.40;;;9.40;99.90;;;;;;5054353;28;20233;-80
2022/10/20 05:44:32;;;;;;;8.05;4.72;;;9.40;99.90;;;;;;5055024;28;20245;-80
2022/10/20 05:46:59;;;;;;;6.47;5.28;;;9.30;99.90;;;;;;5054704;28;20228;-77
2022/10/20 05:49:26;;;;;;;13.00;6.00;;;9.30;99.90;;;;;;5054914;28;20290;-77
2022/10/20 05:51:53;;;;;;;9.35;6.70;;;9.30;99.90;;;;;;5054377;28;20225;-77
2022/10/20 05:54:22;;;;;;;10.10;6.25;;;9.20;99.90;;;;;;5054727;28;20275;-77
2022/10/20 05:56:49;;;;;;;6.43;4.82;;;9.20;99.90;;;;;;5054900;28;20643;-81
2022/10/20 05:59:16;;;;;;;6.03;5.15;;;9.20;99.90;;;;;;5054380;28;20244;-81
2022/10/20 06:01:47;;;;;;;11.20;6.18;;;9.30;99.90;;;;;;5054574;28;20563;-81
2022/10/20 06:04:16;;;;;;;10.68;5.70;;;9.20;99.90;;;;;;5053689;28;20220;-81
2022/10/20 06:06:43;;;;;;;6.90;5.00;;;9.20;99.90;;;;;;5054658;28;20225;-80
2022/10/20 06:09:11;;;;;;;9.65;5.50;;;9.20;99.90;;;;;;5053799;28;20308;-80
2022/10/20 06:11:39;;;;;;;4.97;4.47;;;9.30;99.90;;;;;;5054544;28;20220;-81
2022/10/20 06:14:07;;;;;;;8.15;5.80;;;9.30;99.90;;;;;;5043552;28;20225;-80
2022/10/20 06:16:34;;;;;;;6.63;5.70;;;9.30;99.90;;;;;;5054241;28;20303;-76
2022/10/20 06:19:01;;;;;;;6.20;5.60;;;9.30;99.90;;;;;;5053857;28;20275;-79
2022/10/20 06:21:30;;;;;;;16.02;6.00;;;9.30;99.90;;;;;;5054135;28;20741;-76
2022/10/20 06:23:59;;;;;;;8.38;5.80;;;9.30;99.90;;;;;;5053973;28;20236;-76
2022/10/20 06:26:31;;;;;;;11.05;5.03;;;9.40;99.90;;;;;;5054510;28;20586;-80
2022/10/20 06:29:00;;;;;;;10.25;6.03;;;9.30;99.90;;;;;;5053730;28;20239;-77
2022/10/20 06:31:29;;;;;;;6.78;5.82;;;9.30;99.90;;;;;;5053887;28;20232;-77
2022/10/20 06:33:58;;;;;;;7.13;5.53;;;9.30;99.90;;;;;;5054049;28;20248;-77
2022/10/20 06:36:28;;;;;;;5.68;4.90;;;9.40;99.90;;;;;;5053347;28;20319;-76
2022/10/20 06:38:56;;;;;;;7.10;5.45;;;9.30;99.90;;;;;;5053423;28;20225;-77
2022/10/20 06:41:25;;;;;;;6.80;6.10;;;9.40;99.90;;;;;;5053420;28;20224;-80
2022/10/20 06:43:58;;;;;;;8.30;6.05;;;9.30;99.90;;;;;;5053980;28;20710;-77
2022/10/20 06:46:27;;;;;;;8.05;5.97;;;9.40;99.90;;;;;;5053835;28;20216;-80
2022/10/20 06:48:54;;;;;;;8.30;6.03;;;9.40;99.90;;;;;;5053712;28;20764;-76
2022/10/20 06:51:22;;;;;;;10.55;5.88;;;9.40;99.90;;;;;;5043426;28;20224;-77
2022/10/20 06:53:50;;;;;;;8.27;6.97;;;9.50;99.90;;;;;;5053860;28;20307;-76
2022/10/20 06:56:19;;;;;;;9.88;6.10;;;9.50;99.90;;;;;;5051831;28;20308;-77
2022/10/20 06:58:47;;;;;;;12.50;8.18;;;9.40;99.90;;;;;;5053791;28;20231;-77
2022/10/20 07:01:16;;;;;;;12.27;6.80;;;9.30;99.90;;;;;;5053166;28;20224;-78
2022/10/20 07:03:46;;;;;;;6.65;5.85;;;9.40;99.90;;;;;;5053602;28;20304;-77
2022/10/20 07:06:14;;;;;;;6.95;5.70;;;9.40;99.90;;;;;;5052986;28;20312;-78
2022/10/20 07:08:42;;;;;;;7.93;6.32;;;9.40;99.90;;;;;;5053822;28;20312;-77
2022/10/20 07:11:14;;;;;;;9.45;6.35;;;9.40;99.90;;;;;;5053013;28;20610;-78
2022/10/20 07:13:41;;;;;;;6.68;6.03;;;9.50;99.90;;;;;;5053077;28;20304;-77
2022/10/20 07:16:11;;;;;;;7.32;6.15;;;9.40;99.90;;;;;;5053677;28;20312;-79
2022/10/20 07:18:38;;;;;;;12.57;6.25;;;9.40;99.90;;;;;;5053246;28;20751;-78
2022/10/20 07:21:11;;;;;;;9.73;6.25;;;9.40;99.90;;;;;;5053679;28;20236;-78
2022/10/20 07:23:38;;;;;;;7.13;6.18;;;9.50;99.90;;;;;;5053042;28;20239;-77
2022/10/20 07:26:07;;;;;;;10.20;5.95;;;9.60;99.90;;;;;;5053019;28;20239;-81
2022/10/20 07:28:35;;;;;;;6.60;6.00;;;9.60;99.90;;;;;;5052931;28;20682;-79
2022/10/20 07:31:05;;;;;;;7.03;5.57;;;9.70;99.90;;;;;;5053300;28;20239;-78
2022/10/20 07:33:32;;;;;;;6.38;5.35;;;9.70;99.90;;;;;;5052446;28;20256;-78
2022/10/20 07:36:00;;;;;;;12.13;6.10;;;9.70;99.90;;;;;;5053306;28;20675;-78
2022/10/20 07:38:29;;;;;;;6.97;6.32;;;9.80;99.90;;;;;;5052979;28;20229;-77
2022/10/20 07:41:02;;;;;;;16.50;5.70;;;9.80;99.90;;;;;;5053030;28;20239;-78
2022/10/20 07:43:43;;;;;;;7.90;6.70;;;9.80;99.90;;;;;;5052635;28;20697;-75
2022/10/20 07:46:11;;;;;;;11.43;6.55;;;9.90;99.90;;;;;;5053234;28;20283;-76
2022/10/20 07:48:41;;;;;;;7.30;6.30;;;9.90;99.90;;;;;;5052900;28;20238;-77
2022/10/20 07:51:17;;;;;;;10.73;5.00;;;9.90;99.90;;;;;;5053178;28;20765;-80
2022/10/20 07:53:46;;;;;;;7.70;6.10;;;9.90;99.90;;;;;;5052819;28;20282;-80
2022/10/20 07:56:13;;;;;;;10.45;5.93;;;9.90;99.90;;;;;;5052523;28;20231;-81
2022/10/20 07:58:41;;;;;;;6.93;5.75;;;9.90;99.90;;;;;;5052732;28;20227;-78
2022/10/20 08:01:09;;;;;;;9.05;6.22;;;10.00;99.90;;;;;;5056294;28;20327;-77
2022/10/20 08:03:36;;;;;;;10.52;7.40;;;10.00;99.90;;;;;;5056556;28;20270;-81
2022/10/20 08:06:08;;;;;;;8.07;6.20;;;10.00;99.90;;;;;;5057148;28;20565;-78
2022/10/20 08:08:35;;;;;;;8.55;6.47;;;10.10;99.90;;;;;;5046918;28;20323;-80
2022/10/20 08:11:04;;;;;;;7.30;5.75;;;10.20;99.90;;;;;;5056435;28;20221;-81
2022/10/20 08:13:31;;;;;;;9.52;5.50;;;10.20;99.90;;;;;;5056540;28;20241;-81
2022/10/20 08:15:58;;;;;;;9.38;6.25;;;10.20;99.90;;;;;;5056999;28;20263;-81
2022/10/20 08:18:25;;;;;;;11.18;6.90;;;10.30;99.90;;;;;;5055561;28;20597;-81
2022/10/20 08:20:53;;;;;;;6.63;5.45;;;10.30;99.90;;;;;;5056437;28;20224;-81
2022/10/20 08:23:21;;;;;;;9.23;5.93;;;10.40;99.90;;;;;;5056604;28;20312;-81
2022/10/20 08:25:49;;;;;;;6.97;5.38;;;10.50;99.90;;;;;;5055825;28;20758;-81
2022/10/20 08:28:17;;;;;;;9.13;4.63;;;10.50;99.90;;;;;;5056565;28;20743;-82
2022/10/20 08:30:44;;;;;;;8.98;5.85;;;10.60;99.90;;;;;;5055938;28;20239;-81
2022/10/20 08:33:12;;;;;;;6.28;5.00;;;10.70;99.90;;;;;;5056667;28;20701;-81
2022/10/20 08:35:39;;;;;;;5.72;4.22;;;10.80;99.90;;;;;;5056128;28;20274;-81
2022/10/20 08:38:06;;;;;;;7.47;6.68;;;10.90;99.90;;;;;;5056566;28;20224;-81
2022/10/20 08:40:37;;;;;;;8.10;4.95;;;11.00;99.90;;;;;;5055845;28;20224;-81
2022/10/20 08:43:04;;;;;;;6.28;5.68;;;11.10;99.90;;;;;;5056022;28;20228;-81
2022/10/20 08:45:33;;;;;;;7.60;5.10;;;11.20;99.90;;;;;;5055742;28;20224;-78
2022/10/20 08:48:02;;;;;;;6.30;5.13;;;11.30;99.90;;;;;;5056699;28;20217;-81
2022/10/20 08:50:30;;;;;;;10.45;5.82;;;11.40;99.90;;;;;;5055929;28;20231;-80
2022/10/20 08:53:00;;;;;;;10.20;5.00;;;11.60;99.90;;;;;;5056091;28;20243;-80
2022/10/20 08:55:32;;;;;;;4.68;4.28;;;11.60;99.90;;;;;;5055929;28;20255;-81
2022/10/20 08:58:02;;;;;;;7.72;4.45;;;11.70;99.90;;;;;;5056106;28;20220;-80
2022/10/20 09:00:30;;;;;;;8.27;5.25;;;11.80;99.90;;;;;;5056187;28;20227;-80
2022/10/20 09:03:02;;;;;;;5.82;4.65;;;11.80;99.90;;;;;;5055885;28;20601;-78
2022/10/20 09:05:32;;;;;;;7.18;5.63;;;11.90;99.90;;;;;;5055889;28;20231;-78
2022/10/20 09:07:59;;;;;;;9.57;4.70;;;12.00;99.90;;;;;;5043956;28;20221;-81
2022/10/20 09:10:33;;;;;;;7.78;5.03;;;12.10;99.90;;;;;;5055579;28;20259;-81
2022/10/20 09:13:01;;;;;;;9.27;4.82;;;12.20;99.90;;;;;;5054066;28;20290;-77
2022/10/20 09:15:29;;;;;;;6.93;4.20;;;12.20;99.90;;;;;;5056352;28;20255;-77
2022/10/20 09:18:05;;;;;;;6.20;4.97;;;12.20;99.90;;;;;;5055192;28;20635;-78
2022/10/20 09:20:45;;;;;;;5.65;5.07;;;12.30;99.90;;;;;;5055194;28;20221;-77
2022/10/20 09:23:14;;;;;;;7.40;5.18;;;12.30;99.90;;;;;;5055483;28;20726;-78
2022/10/20 09:25:44;;;;;;;5.43;4.80;;;12.20;99.90;;;;;;5054963;28;20249;-81
2022/10/20 09:28:22;;;;;;;5.07;4.57;;;12.30;99.90;;;;;;5054296;28;20302;-81
2022/10/20 09:30:49;;;;;;;7.30;4.80;;;12.40;99.90;;;;;;5055410;28;20235;-80
2022/10/20 09:33:32;;;;;;;10.35;4.90;;;12.40;99.90;;;;;;5055542;28;20225;-81
2022/10/20 09:36:04;;;;;;;5.50;5.00;;;12.40;99.90;;;;;;5055123;28;20670;-77
2022/10/20 09:38:34;;;;;;;8.18;5.55;;;12.40;99.90;;;;;;5055041;28;20217;-81
2022/10/20 09:41:11;;;;;;;8.23;5.30;;;12.30;99.90;;;;;;5056267;28;20232;-81
2022/10/20 09:43:41;;;;;;;4.93;4.43;;;12.40;99.90;;;;;;5055769;28;20225;-80
2022/10/20 09:46:11;;;;;;;11.82;5.93;;;12.40;99.90;;;;;;5055774;28;20235;-81
2022/10/20 09:48:45;;;;;;;8.73;5.53;;;12.40;99.90;;;;;;5055724;28;20225;-77
2022/10/20 09:51:15;;;;;;;6.95;5.65;;;12.40;99.90;;;;;;5054903;28;20312;-77
2022/10/20 09:53:52;;;;;;;5.82;5.13;;;12.50;99.90;;;;;;5055502;28;20290;-77
2022/10/20 09:56:28;;;;;;;6.65;5.20;;;12.50;99.90;;;;;;5056753;28;20247;-76
2022/10/20 09:58:56;;;;;;;5.30;4.75;;;12.60;99.90;;;;;;5054886;28;20312;-77
2022/10/20 10:01:23;;;;;;;6.93;4.95;;;12.60;99.90;;;;;;5054698;28;20259;-77
2022/10/20 10:03:54;;;;;;;7.50;4.95;;;12.60;99.90;;;;;;5055315;28;20239;-77
2022/10/20 10:06:41;;;;;;;5.93;4.95;;;12.70;99.90;;;;;;5055273;28;20229;-76
2022/10/20 10:09:26;;;;;;;8.32;5.90;;;12.70;99.90;;;;;;5054899;28;20661;-80
2022/10/20 10:12:19;;;;;;;6.70;4.50;;;12.80;99.90;;;;;;5044880;28;20236;-77
2022/10/20 10:14:52;;;;;;;8.35;4.65;;;12.80;99.90;;;;;;5054227;28;20228;-77
2022/10/20 10:17:29;;;;;;;5.90;4.40;;;12.80;99.90;;;;;;5044982;28;20255;-80
2022/10/20 10:19:58;;;;;;;5.45;4.78;;;12.80;99.90;;;;;;5054288;28;20250;-81
2022/10/20 10:22:25;;;;;;;5.80;5.05;;;12.90;99.90;;;;;;5054345;28;20259;-78
2022/10/20 10:24:55;;;;;;;6.43;5.25;;;13.00;99.90;;;;;;5053563;28;20224;-77
2022/10/20 10:27:25;;;;;;;5.03;4.43;;;13.10;99.90;;;;;;5054895;28;20728;-81
2022/10/20 10:29:53;;;;;;;6.82;5.15;;;13.10;99.90;;;;;;5058811;28;20251;-78
2022/10/20 10:32:25;;;;;;;6.22;4.93;;;13.10;99.90;;;;;;5057617;28;20282;-77
2022/10/20 10:35:11;;;;;;;6.57;4.68;;;13.20;99.90;;;;;;5053971;28;20251;-76
2022/10/20 10:37:41;;;;;;;5.28;4.35;;;13.30;99.90;;;;;;5054620;28;20304;-77
2022/10/20 10:40:15;;;;;;;5.28;4.43;;;13.40;99.90;;;;;;5054278;28;20216;-77
2022/10/20 10:43:06;;;;;;;5.00;3.53;;;13.30;99.90;;;;;;5054098;28;20247;-77
2022/10/20 10:45:45;;;;;;;5.38;3.90;;;13.40;99.90;;;;;;5042618;28;20221;-81
2022/10/20 10:48:55;;;;;;;5.03;3.90;;;13.40;99.90;;;;;;5054551;28;20554;-80
2022/10/20 10:51:48;;;;;;;4.75;3.30;;;13.50;99.90;;;;;;5054525;28;20221;-81
2022/10/20 10:54:29;;;;;;;5.43;3.88;;;13.60;99.90;;;;;;5061820;28;20228;-81
2022/10/20 10:57:02;;;;;;;4.07;3.00;;;13.60;99.90;;;;;;5062840;28;20224;-78
2022/10/20 10:59:33;;;;;;;6.18;3.30;;;13.70;99.90;;;;;;5065490;28;20635;-81
2022/10/20 11:02:21;;;;;;;5.13;3.70;;;13.70;99.90;;;;;;5062349;28;20255;-81
2022/10/20 11:05:06;;;;;;;10.50;4.47;;;13.70;99.90;;;;;;5055867;28;20220;-81
2022/10/20 11:07:42;;;;;;;5.25;3.85;;;13.80;99.90;;;;;;5056041;28;20964;-80
2022/10/20 11:10:16;;;;;;;3.50;2.80;;;13.80;99.90;;;;;;5054197;28;20267;-80
2022/10/20 11:12:56;;;;;;;8.30;3.30;;;13.90;99.90;;;;;;5053795;28;20471;-77
2022/10/20 11:15:33;;;;;;;3.60;3.30;;;13.90;99.90;;;;;;5053937;28;20461;-77
2022/10/20 11:18:12;;;;;;;3.50;3.15;;;13.90;99.90;;;;;;5053057;28;20220;-77
2022/10/20 11:20:47;;;;;;;5.18;3.15;;;13.80;99.90;;;;;;5056814;28;20247;-77
2022/10/20 11:23:35;;;;;;;6.83;3.37;;;13.90;99.90;;;;;;5053719;28;20315;-76
2022/10/20 11:26:14;;;;;;;5.90;3.63;;;13.90;99.90;;;;;;5054638;28;20529;-76
2022/10/20 11:28:44;;;;;;;6.25;3.85;;;14.00;99.90;;;;;;5054519;28;20800;-78
2022/10/20 11:31:20;;;;;;;3.33;3.03;;;14.00;99.90;;;;;;5052938;28;20289;-77
2022/10/20 11:33:57;;;;;;;5.50;3.50;;;14.10;99.90;;;;;;5056840;28;20466;-77
2022/10/20 11:36:32;;;;;;;4.57;3.20;;;14.10;99.90;;;;;;5058828;28;20478;-76
2022/10/20 11:39:02;;;;;;;6.97;3.10;;;14.10;99.90;;;;;;5056992;28;20528;-77
2022/10/20 11:41:35;;;;;;;3.20;2.90;;;14.20;99.90;;;;;;5055081;28;20469;-77
2022/10/20 11:44:07;;;;;;;3.33;3.03;;;14.20;99.90;;;;;;5054151;28;20825;-79
2022/10/20 11:46:43;;;;;;;5.17;3.80;;;14.30;99.90;;;;;;5053827;28;20539;-78
2022/10/20 11:49:13;;;;;;;3.50;3.20;;;14.30;99.90;;;;;;5054863;28;20459;-76
2022/10/20 11:52:15;;;;;;;5.33;3.47;;;14.40;99.90;;;;;;5054355;28;20499;-77
2022/10/20 11:55:00;;;;;;;4.17;2.80;;;14.40;99.90;;;;;;5020867;28;20584;-78
2022/10/20 11:57:38;;;;;;;2.57;2.37;;;14.50;99.90;;;;;;5054606;28;20546;-78
2022/10/20 12:00:33;;;;;;;4.90;3.23;;;14.50;99.90;;;;;;5055437;28;20807;-78
2022/10/20 12:03:30;;;;;;;4.60;2.80;;;14.50;99.90;;;;;;5055515;28;20467;-79
2022/10/20 12:06:22;;;;;;;3.10;2.53;;;14.60;99.90;;;;;;5056763;28;20558;-79
2022/10/20 12:09:16;;;;;;;3.07;2.40;;;14.70;99.90;;;;;;5064639;28;20467;-81
2022/10/20 12:11:53;;;;;;;3.73;2.63;;;14.70;99.90;;;;;;5068841;28;20468;-81
2022/10/20 12:14:29;;;;;;;3.27;2.90;;;14.70;99.90;;;;;;5069460;28;20454;-79
2022/10/20 12:17:17;;;;;;;4.43;2.23;;;14.70;99.90;;;;;;5067462;28;20486;-80
2022/10/20 12:19:44;;;;;;;4.90;3.20;;;14.70;99.80;;;;;;5056098;28;20531;-79
2022/10/20 12:22:39;;;;;;;2.93;2.57;;;14.80;99.70;;;;;;5065276;28;20463;-80
2022/10/20 12:25:34;;;;;;;4.60;2.80;;;14.90;99.80;;;;;;5055290;28;20470;-81
2022/10/20 12:28:40;;;;;;;3.23;2.67;;;14.90;99.60;;;;;;5061943;28;20995;-82
2022/10/20 12:31:07;;;;;;;2.70;2.30;;;14.90;99.60;;;;;;5062603;28;20482;-82
2022/10/20 12:33:59;;;;;;;3.80;2.83;;;15.00;99.60;;;;;;5061225;28;20550;-81
2022/10/20 12:36:33;;;;;;;3.50;3.20;;;15.00;99.10;;;;;;5057899;28;20459;-80
2022/10/20 12:39:21;;;;;;;5.07;2.70;;;15.10;99.10;;;;;;5055033;28;20454;-78
2022/10/20 12:42:01;;;;;;;2.93;2.30;;;15.10;99.00;;;;;;5053270;28;20878;-78
2022/10/20 12:44:32;;;;;;;3.00;2.33;;;15.10;99.00;;;;;;5053662;28;20922;-76
2022/10/20 12:47:05;;;;;;;7.03;3.30;;;15.10;99.00;;;;;;5055654;28;20483;-77
2022/10/20 12:49:37;;;;;;;3.30;2.20;;;15.20;99.00;;;;;;5057648;28;20478;-76
2022/10/20 12:52:06;;;;;;;4.27;2.00;;;15.20;98.80;;;;;;5056697;28;20505;-76
2022/10/20 12:54:41;;;;;;;4.40;2.63;;;15.20;98.40;;;;;;5045105;28;20542;-78
2022/10/20 12:57:27;;;;;;;2.93;2.00;;;15.20;98.40;;;;;;5056655;28;20825;-78
2022/10/20 12:59:55;;;;;;;4.40;2.33;;;15.20;98.50;;;;;;5056249;28;20471;-77
2022/10/20 13:02:33;;;;;;;3.43;2.50;;;15.20;98.20;;;;;;5056524;28;20471;-78
2022/10/20 13:05:03;;;;;;;5.63;3.10;;;15.20;98.10;;;;;;5055361;28;20524;-77
2022/10/20 13:07:59;;;;;;;3.40;2.50;;;15.20;97.70;;;;;;5056235;28;20495;-78
2022/10/20 13:10:31;;;;;;;4.70;2.73;;;15.20;97.50;;;;;;5055663;28;20550;-78
2022/10/20 13:13:31;;;;;;;3.60;2.20;;;15.20;97.60;;;;;;5056355;28;20455;-77
2022/10/20 13:16:01;;;;;;;3.33;2.40;;;15.20;97.80;;;;;;5056102;28;20842;-81
2022/10/20 13:18:30;;;;;;;4.97;3.00;;;15.30;98.00;;;;;;5051795;28;21004;-80
2022/10/20 13:21:01;;;;;;;2.83;2.63;;;15.30;97.70;;;;;;5055544;28;20947;-80